sensor_id;sensor_type;location;lat;lon;timestamp;P1;durP1;ratioP1;P2;durP2;ratioP2
908;SDS011;441;51.192;6.788;2022-12-29T00:00:18;6.47;;;6.27;;
908;SDS011;441;51.192;6.788;2022-12-29T00:02:46;7.03;;;6.83;;
908;SDS011;441;51.192;6.788;2022-12-29T00:05:13;7.00;;;6.70;;
908;SDS011;441;51.192;6.788;2022-12-29T00:07:40;6.73;;;6.53;;
908;SDS011;441;51.192;6.788;2022-12-29T00:10:07;6.67;;;6.47;;
908;SDS011;441;51.192;6.788;2022-12-29T00:12:34;6.73;;;6.50;;
908;SDS011;441;51.192;6.788;2022-12-29T00:15:18;6.23;;;6.13;;
908;SDS011;441;51.192;6.788;2022-12-29T00:18:04;6.50;;;6.40;;
908;SDS011;441;51.192;6.788;2022-12-29T00:20:33;6.50;;;6.30;;
908;SDS011;441;51.192;6.788;2022-12-29T00:23:18;6.77;;;6.57;;
908;SDS011;441;51.192;6.788;2022-12-29T00:26:03;6.93;;;6.63;;
908;SDS011;441;51.192;6.788;2022-12-29T00:28:47;6.73;;;6.53;;
908;SDS011;441;51.192;6.788;2022-12-29T00:31:33;7.17;;;6.97;;
908;SDS011;441;51.192;6.788;2022-12-29T00:34:18;8.03;;;7.50;;
908;SDS011;441;51.192;6.788;2022-12-29T00:37:03;6.97;;;6.77;;
908;SDS011;441;51.192;6.788;2022-12-29T00:39:29;6.40;;;6.10;;
908;SDS011;441;51.192;6.788;2022-12-29T00:42:14;7.00;;;6.80;;
908;SDS011;441;51.192;6.788;2022-12-29T00:44:57;8.00;;;6.67;;
908;SDS011;441;51.192;6.788;2022-12-29T00:47:24;7.20;;;7.00;;
908;SDS011;441;51.192;6.788;2022-12-29T00:49:52;6.77;;;6.50;;
908;SDS011;441;51.192;6.788;2022-12-29T00:52:18;6.53;;;6.37;;
908;SDS011;441;51.192;6.788;2022-12-29T00:54:45;8.13;;;7.60;;
908;SDS011;441;51.192;6.788;2022-12-29T00:57:12;6.40;;;6.20;;
908;SDS011;441;51.192;6.788;2022-12-29T00:59:39;6.20;;;6.00;;
908;SDS011;441;51.192;6.788;2022-12-29T01:02:07;6.37;;;6.17;;
908;SDS011;441;51.192;6.788;2022-12-29T01:04:35;5.93;;;5.83;;
908;SDS011;441;51.192;6.788;2022-12-29T01:07:03;6.13;;;6.03;;
908;SDS011;441;51.192;6.788;2022-12-29T01:09:31;6.40;;;6.20;;
908;SDS011;441;51.192;6.788;2022-12-29T01:12:15;6.50;;;6.30;;
908;SDS011;441;51.192;6.788;2022-12-29T01:15:02;6.03;;;5.83;;
908;SDS011;441;51.192;6.788;2022-12-29T01:17:29;6.23;;;5.93;;
908;SDS011;441;51.192;6.788;2022-12-29T01:19:56;5.90;;;5.80;;
908;SDS011;441;51.192;6.788;2022-12-29T01:22:24;7.33;;;7.03;;
908;SDS011;441;51.192;6.788;2022-12-29T01:24:51;6.13;;;5.87;;
908;SDS011;441;51.192;6.788;2022-12-29T01:27:18;6.63;;;6.43;;
908;SDS011;441;51.192;6.788;2022-12-29T01:29:44;6.47;;;6.30;;
908;SDS011;441;51.192;6.788;2022-12-29T01:32:11;6.00;;;5.90;;
908;SDS011;441;51.192;6.788;2022-12-29T01:34:38;6.13;;;6.00;;
908;SDS011;441;51.192;6.788;2022-12-29T01:37:05;6.10;;;5.80;;
908;SDS011;441;51.192;6.788;2022-12-29T01:39:33;6.13;;;6.03;;
908;SDS011;441;51.192;6.788;2022-12-29T01:42:00;6.10;;;5.90;;
908;SDS011;441;51.192;6.788;2022-12-29T01:47:19;6.23;;;6.03;;
908;SDS011;441;51.192;6.788;2022-12-29T01:49:52;6.93;;;6.73;;
908;SDS011;441;51.192;6.788;2022-12-29T01:52:21;6.57;;;6.37;;
908;SDS011;441;51.192;6.788;2022-12-29T01:54:52;6.30;;;6.10;;
908;SDS011;441;51.192;6.788;2022-12-29T01:57:22;6.00;;;5.90;;
908;SDS011;441;51.192;6.788;2022-12-29T01:59:53;6.43;;;6.23;;
908;SDS011;441;51.192;6.788;2022-12-29T02:02:22;5.93;;;5.80;;
908;SDS011;441;51.192;6.788;2022-12-29T02:04:50;6.10;;;6.00;;
908;SDS011;441;51.192;6.788;2022-12-29T02:07:20;5.93;;;5.80;;
908;SDS011;441;51.192;6.788;2022-12-29T02:09:52;5.90;;;5.70;;
908;SDS011;441;51.192;6.788;2022-12-29T02:12:20;5.77;;;5.67;;
908;SDS011;441;51.192;6.788;2022-12-29T02:14:51;5.97;;;5.87;;
908;SDS011;441;51.192;6.788;2022-12-29T02:17:25;6.00;;;5.90;;
908;SDS011;441;51.192;6.788;2022-12-29T02:23:06;5.87;;;5.67;;
908;SDS011;441;51.192;6.788;2022-12-29T02:25:54;6.73;;;6.50;;
908;SDS011;441;51.192;6.788;2022-12-29T02:31:35;5.97;;;5.87;;
908;SDS011;441;51.192;6.788;2022-12-29T02:34:10;5.63;;;5.53;;
908;SDS011;441;51.192;6.788;2022-12-29T02:36:50;5.60;;;5.50;;
908;SDS011;441;51.192;6.788;2022-12-29T02:39:27;5.70;;;5.60;;
908;SDS011;441;51.192;6.788;2022-12-29T02:42:03;5.97;;;5.87;;
908;SDS011;441;51.192;6.788;2022-12-29T02:44:40;5.93;;;5.83;;
908;SDS011;441;51.192;6.788;2022-12-29T02:47:19;6.00;;;5.90;;
908;SDS011;441;51.192;6.788;2022-12-29T02:49:52;6.47;;;6.27;;
908;SDS011;441;51.192;6.788;2022-12-29T02:52:26;5.77;;;5.67;;
908;SDS011;441;51.192;6.788;2022-12-29T02:54:58;5.73;;;5.63;;
908;SDS011;441;51.192;6.788;2022-12-29T02:57:29;5.83;;;5.73;;
908;SDS011;441;51.192;6.788;2022-12-29T02:59:58;5.60;;;5.50;;
908;SDS011;441;51.192;6.788;2022-12-29T03:02:46;6.10;;;6.00;;
908;SDS011;441;51.192;6.788;2022-12-29T03:05:35;5.67;;;5.57;;
908;SDS011;441;51.192;6.788;2022-12-29T03:08:17;5.37;;;5.27;;
908;SDS011;441;51.192;6.788;2022-12-29T03:10:50;6.20;;;6.00;;
908;SDS011;441;51.192;6.788;2022-12-29T03:13:26;5.67;;;5.57;;
908;SDS011;441;51.192;6.788;2022-12-29T03:16:14;5.93;;;5.73;;
908;SDS011;441;51.192;6.788;2022-12-29T03:18:51;5.83;;;5.73;;
908;SDS011;441;51.192;6.788;2022-12-29T03:21:26;6.43;;;6.33;;
908;SDS011;441;51.192;6.788;2022-12-29T03:24:11;5.50;;;5.40;;
908;SDS011;441;51.192;6.788;2022-12-29T03:26:39;6.10;;;5.90;;
908;SDS011;441;51.192;6.788;2022-12-29T03:29:07;5.67;;;5.47;;
908;SDS011;441;51.192;6.788;2022-12-29T03:31:35;6.17;;;5.97;;
908;SDS011;441;51.192;6.788;2022-12-29T03:34:05;5.20;;;5.13;;
908;SDS011;441;51.192;6.788;2022-12-29T03:36:35;5.73;;;5.60;;
908;SDS011;441;51.192;6.788;2022-12-29T03:39:09;5.50;;;5.40;;
908;SDS011;441;51.192;6.788;2022-12-29T03:41:37;5.90;;;5.80;;
908;SDS011;441;51.192;6.788;2022-12-29T03:44:09;5.70;;;5.50;;
908;SDS011;441;51.192;6.788;2022-12-29T03:46:37;5.73;;;5.63;;
908;SDS011;441;51.192;6.788;2022-12-29T03:49:03;5.40;;;5.30;;
908;SDS011;441;51.192;6.788;2022-12-29T03:51:32;6.07;;;5.97;;
908;SDS011;441;51.192;6.788;2022-12-29T03:53:58;5.70;;;5.60;;
908;SDS011;441;51.192;6.788;2022-12-29T03:56:25;6.10;;;6.00;;
908;SDS011;441;51.192;6.788;2022-12-29T03:58:52;5.80;;;5.70;;
908;SDS011;441;51.192;6.788;2022-12-29T04:01:19;5.50;;;5.40;;
908;SDS011;441;51.192;6.788;2022-12-29T04:03:46;6.07;;;5.97;;
908;SDS011;441;51.192;6.788;2022-12-29T04:06:14;5.67;;;5.57;;
908;SDS011;441;51.192;6.788;2022-12-29T04:08:41;6.13;;;5.93;;
908;SDS011;441;51.192;6.788;2022-12-29T04:11:07;5.93;;;5.83;;
908;SDS011;441;51.192;6.788;2022-12-29T04:13:34;5.90;;;5.80;;
908;SDS011;441;51.192;6.788;2022-12-29T04:16:02;5.50;;;5.40;;
908;SDS011;441;51.192;6.788;2022-12-29T04:18:29;6.03;;;5.93;;
908;SDS011;441;51.192;6.788;2022-12-29T04:20:56;6.17;;;6.00;;
908;SDS011;441;51.192;6.788;2022-12-29T04:23:28;6.43;;;6.27;;
908;SDS011;441;51.192;6.788;2022-12-29T04:25:56;5.83;;;5.73;;
908;SDS011;441;51.192;6.788;2022-12-29T04:28:23;6.17;;;6.00;;
908;SDS011;441;51.192;6.788;2022-12-29T04:30:50;6.10;;;6.00;;
908;SDS011;441;51.192;6.788;2022-12-29T04:33:17;5.77;;;5.67;;
908;SDS011;441;51.192;6.788;2022-12-29T04:35:44;6.20;;;6.00;;
908;SDS011;441;51.192;6.788;2022-12-29T04:38:11;6.00;;;5.90;;
908;SDS011;441;51.192;6.788;2022-12-29T04:40:40;5.70;;;5.60;;
908;SDS011;441;51.192;6.788;2022-12-29T04:43:08;6.07;;;5.97;;
908;SDS011;441;51.192;6.788;2022-12-29T04:45:36;6.87;;;6.77;;
908;SDS011;441;51.192;6.788;2022-12-29T04:48:03;5.70;;;5.60;;
908;SDS011;441;51.192;6.788;2022-12-29T04:50:30;6.40;;;6.30;;
908;SDS011;441;51.192;6.788;2022-12-29T04:52:57;6.23;;;6.03;;
908;SDS011;441;51.192;6.788;2022-12-29T04:55:24;6.37;;;6.27;;
908;SDS011;441;51.192;6.788;2022-12-29T04:57:52;6.20;;;6.10;;
908;SDS011;441;51.192;6.788;2022-12-29T05:00:19;6.03;;;5.93;;
908;SDS011;441;51.192;6.788;2022-12-29T05:02:46;6.13;;;5.93;;
908;SDS011;441;51.192;6.788;2022-12-29T05:05:14;6.40;;;6.30;;
908;SDS011;441;51.192;6.788;2022-12-29T05:07:41;6.37;;;6.23;;
908;SDS011;441;51.192;6.788;2022-12-29T05:10:08;6.50;;;6.40;;
908;SDS011;441;51.192;6.788;2022-12-29T05:12:35;6.50;;;6.30;;
908;SDS011;441;51.192;6.788;2022-12-29T05:15:06;6.50;;;6.30;;
908;SDS011;441;51.192;6.788;2022-12-29T05:17:34;6.83;;;6.73;;
908;SDS011;441;51.192;6.788;2022-12-29T05:20:02;7.00;;;6.90;;
908;SDS011;441;51.192;6.788;2022-12-29T05:22:29;7.20;;;7.10;;
908;SDS011;441;51.192;6.788;2022-12-29T05:24:56;6.97;;;6.87;;
908;SDS011;441;51.192;6.788;2022-12-29T05:27:23;7.27;;;7.10;;
908;SDS011;441;51.192;6.788;2022-12-29T05:29:49;7.20;;;7.10;;
908;SDS011;441;51.192;6.788;2022-12-29T05:32:18;7.23;;;7.13;;
908;SDS011;441;51.192;6.788;2022-12-29T05:34:45;7.17;;;7.07;;
908;SDS011;441;51.192;6.788;2022-12-29T05:37:12;7.40;;;7.23;;
908;SDS011;441;51.192;6.788;2022-12-29T05:39:39;6.80;;;6.70;;
908;SDS011;441;51.192;6.788;2022-12-29T05:42:05;7.30;;;7.20;;
908;SDS011;441;51.192;6.788;2022-12-29T05:44:32;7.10;;;7.00;;
908;SDS011;441;51.192;6.788;2022-12-29T05:46:59;7.20;;;7.10;;
908;SDS011;441;51.192;6.788;2022-12-29T05:49:27;7.33;;;7.17;;
908;SDS011;441;51.192;6.788;2022-12-29T05:51:54;6.90;;;6.80;;
908;SDS011;441;51.192;6.788;2022-12-29T05:54:21;6.83;;;6.73;;
908;SDS011;441;51.192;6.788;2022-12-29T05:56:48;7.40;;;7.20;;
908;SDS011;441;51.192;6.788;2022-12-29T05:59:14;7.40;;;7.27;;
908;SDS011;441;51.192;6.788;2022-12-29T06:01:41;6.63;;;6.53;;
908;SDS011;441;51.192;6.788;2022-12-29T06:04:08;7.23;;;7.13;;
908;SDS011;441;51.192;6.788;2022-12-29T06:06:36;7.07;;;6.97;;
908;SDS011;441;51.192;6.788;2022-12-29T06:09:03;6.83;;;6.73;;
908;SDS011;441;51.192;6.788;2022-12-29T06:11:30;7.13;;;7.03;;
908;SDS011;441;51.192;6.788;2022-12-29T06:13:57;7.00;;;6.90;;
908;SDS011;441;51.192;6.788;2022-12-29T06:16:24;6.90;;;6.80;;
908;SDS011;441;51.192;6.788;2022-12-29T06:18:51;7.30;;;7.10;;
908;SDS011;441;51.192;6.788;2022-12-29T06:21:17;7.30;;;7.10;;
908;SDS011;441;51.192;6.788;2022-12-29T06:23:45;7.20;;;7.10;;
908;SDS011;441;51.192;6.788;2022-12-29T06:26:12;7.30;;;7.00;;
908;SDS011;441;51.192;6.788;2022-12-29T06:28:39;8.20;;;8.00;;
908;SDS011;441;51.192;6.788;2022-12-29T06:31:08;7.70;;;7.60;;
908;SDS011;441;51.192;6.788;2022-12-29T06:33:36;8.63;;;8.43;;
908;SDS011;441;51.192;6.788;2022-12-29T06:36:03;7.80;;;7.50;;
908;SDS011;441;51.192;6.788;2022-12-29T06:38:30;7.80;;;7.70;;
908;SDS011;441;51.192;6.788;2022-12-29T06:40:58;8.03;;;7.83;;
908;SDS011;441;51.192;6.788;2022-12-29T06:43:25;8.37;;;8.20;;
908;SDS011;441;51.192;6.788;2022-12-29T06:45:52;7.90;;;7.70;;
908;SDS011;441;51.192;6.788;2022-12-29T06:48:18;7.97;;;7.87;;
908;SDS011;441;51.192;6.788;2022-12-29T06:50:45;8.23;;;8.03;;
908;SDS011;441;51.192;6.788;2022-12-29T06:53:12;7.80;;;7.70;;
908;SDS011;441;51.192;6.788;2022-12-29T06:55:39;8.37;;;8.17;;
908;SDS011;441;51.192;6.788;2022-12-29T06:58:08;8.13;;;7.93;;
908;SDS011;441;51.192;6.788;2022-12-29T07:00:35;8.83;;;8.63;;
908;SDS011;441;51.192;6.788;2022-12-29T07:03:02;8.40;;;8.20;;
908;SDS011;441;51.192;6.788;2022-12-29T07:05:28;8.10;;;7.90;;
908;SDS011;441;51.192;6.788;2022-12-29T07:07:57;7.60;;;7.40;;
908;SDS011;441;51.192;6.788;2022-12-29T07:10:25;7.93;;;7.73;;
908;SDS011;441;51.192;6.788;2022-12-29T07:12:52;7.57;;;7.43;;
908;SDS011;441;51.192;6.788;2022-12-29T07:15:20;7.60;;;7.40;;
908;SDS011;441;51.192;6.788;2022-12-29T07:17:47;7.80;;;7.70;;
908;SDS011;441;51.192;6.788;2022-12-29T07:20:14;8.00;;;7.80;;
908;SDS011;441;51.192;6.788;2022-12-29T07:22:41;8.30;;;8.20;;
908;SDS011;441;51.192;6.788;2022-12-29T07:25:08;7.63;;;7.53;;
908;SDS011;441;51.192;6.788;2022-12-29T07:27:35;7.73;;;7.53;;
908;SDS011;441;51.192;6.788;2022-12-29T07:30:02;7.53;;;7.43;;
908;SDS011;441;51.192;6.788;2022-12-29T07:32:33;7.47;;;7.27;;
908;SDS011;441;51.192;6.788;2022-12-29T07:35:00;7.80;;;7.70;;
908;SDS011;441;51.192;6.788;2022-12-29T07:37:27;8.37;;;8.17;;
908;SDS011;441;51.192;6.788;2022-12-29T07:39:54;8.03;;;7.83;;
908;SDS011;441;51.192;6.788;2022-12-29T07:42:20;7.77;;;7.57;;
908;SDS011;441;51.192;6.788;2022-12-29T07:44:47;7.70;;;7.50;;
908;SDS011;441;51.192;6.788;2022-12-29T07:47:14;7.53;;;7.40;;
908;SDS011;441;51.192;6.788;2022-12-29T07:49:42;7.67;;;7.53;;
908;SDS011;441;51.192;6.788;2022-12-29T07:52:09;7.73;;;7.63;;
908;SDS011;441;51.192;6.788;2022-12-29T07:54:36;8.10;;;7.90;;
908;SDS011;441;51.192;6.788;2022-12-29T07:57:03;7.47;;;7.27;;
908;SDS011;441;51.192;6.788;2022-12-29T07:59:30;8.23;;;8.03;;
908;SDS011;441;51.192;6.788;2022-12-29T08:01:57;7.53;;;7.43;;
908;SDS011;441;51.192;6.788;2022-12-29T08:04:24;7.70;;;7.60;;
908;SDS011;441;51.192;6.788;2022-12-29T08:06:52;7.63;;;7.43;;
908;SDS011;441;51.192;6.788;2022-12-29T08:09:19;7.53;;;7.37;;
908;SDS011;441;51.192;6.788;2022-12-29T08:11:46;7.53;;;7.33;;
908;SDS011;441;51.192;6.788;2022-12-29T08:14:13;8.30;;;8.10;;
908;SDS011;441;51.192;6.788;2022-12-29T08:16:39;8.57;;;8.27;;
908;SDS011;441;51.192;6.788;2022-12-29T08:19:06;7.97;;;7.87;;
908;SDS011;441;51.192;6.788;2022-12-29T08:21:33;8.70;;;8.50;;
908;SDS011;441;51.192;6.788;2022-12-29T08:24:01;7.80;;;7.70;;
908;SDS011;441;51.192;6.788;2022-12-29T08:26:28;8.30;;;8.10;;
908;SDS011;441;51.192;6.788;2022-12-29T08:28:55;7.90;;;7.70;;
908;SDS011;441;51.192;6.788;2022-12-29T08:31:22;7.73;;;7.63;;
908;SDS011;441;51.192;6.788;2022-12-29T08:33:49;8.20;;;8.00;;
908;SDS011;441;51.192;6.788;2022-12-29T08:36:16;7.90;;;7.70;;
908;SDS011;441;51.192;6.788;2022-12-29T08:38:43;7.50;;;7.40;;
908;SDS011;441;51.192;6.788;2022-12-29T08:41:11;7.70;;;7.60;;
908;SDS011;441;51.192;6.788;2022-12-29T08:43:38;8.30;;;8.10;;
908;SDS011;441;51.192;6.788;2022-12-29T08:46:05;8.10;;;7.80;;
908;SDS011;441;51.192;6.788;2022-12-29T08:48:32;8.00;;;7.80;;
908;SDS011;441;51.192;6.788;2022-12-29T08:50:59;8.10;;;7.90;;
908;SDS011;441;51.192;6.788;2022-12-29T08:53:25;8.37;;;8.17;;
908;SDS011;441;51.192;6.788;2022-12-29T08:55:55;7.90;;;7.70;;
908;SDS011;441;51.192;6.788;2022-12-29T08:58:24;7.87;;;7.77;;
908;SDS011;441;51.192;6.788;2022-12-29T09:00:52;8.23;;;8.07;;
908;SDS011;441;51.192;6.788;2022-12-29T09:03:19;7.90;;;7.70;;
908;SDS011;441;51.192;6.788;2022-12-29T09:05:47;8.93;;;8.70;;
908;SDS011;441;51.192;6.788;2022-12-29T09:08:15;8.30;;;8.07;;
908;SDS011;441;51.192;6.788;2022-12-29T09:10:42;8.30;;;8.10;;
908;SDS011;441;51.192;6.788;2022-12-29T09:13:09;8.20;;;8.00;;
908;SDS011;441;51.192;6.788;2022-12-29T09:15:38;8.27;;;8.07;;
908;SDS011;441;51.192;6.788;2022-12-29T09:18:06;8.73;;;8.53;;
908;SDS011;441;51.192;6.788;2022-12-29T09:20:33;8.33;;;8.13;;
908;SDS011;441;51.192;6.788;2022-12-29T09:23:00;7.83;;;7.67;;
908;SDS011;441;51.192;6.788;2022-12-29T09:25:27;8.00;;;7.90;;
908;SDS011;441;51.192;6.788;2022-12-29T09:27:54;8.40;;;8.20;;
908;SDS011;441;51.192;6.788;2022-12-29T09:30:22;8.50;;;8.20;;
908;SDS011;441;51.192;6.788;2022-12-29T09:32:50;8.53;;;8.33;;
908;SDS011;441;51.192;6.788;2022-12-29T09:35:17;8.60;;;8.40;;
908;SDS011;441;51.192;6.788;2022-12-29T09:37:44;8.53;;;8.33;;
908;SDS011;441;51.192;6.788;2022-12-29T09:40:17;8.60;;;8.40;;
908;SDS011;441;51.192;6.788;2022-12-29T09:42:59;7.83;;;7.73;;
908;SDS011;441;51.192;6.788;2022-12-29T09:45:46;8.77;;;8.50;;
908;SDS011;441;51.192;6.788;2022-12-29T09:48:22;8.53;;;8.33;;
908;SDS011;441;51.192;6.788;2022-12-29T09:50:55;8.30;;;8.10;;
908;SDS011;441;51.192;6.788;2022-12-29T09:53:25;8.87;;;8.57;;
908;SDS011;441;51.192;6.788;2022-12-29T09:55:57;8.60;;;8.30;;
908;SDS011;441;51.192;6.788;2022-12-29T09:58:27;8.20;;;8.00;;
908;SDS011;441;51.192;6.788;2022-12-29T10:01:00;8.73;;;8.53;;
908;SDS011;441;51.192;6.788;2022-12-29T10:03:35;8.63;;;8.43;;
908;SDS011;441;51.192;6.788;2022-12-29T10:06:12;9.00;;;8.70;;
908;SDS011;441;51.192;6.788;2022-12-29T10:08:44;9.80;;;9.40;;
908;SDS011;441;51.192;6.788;2022-12-29T10:11:19;9.00;;;8.80;;
908;SDS011;441;51.192;6.788;2022-12-29T10:14:02;9.27;;;8.87;;
908;SDS011;441;51.192;6.788;2022-12-29T10:16:39;9.73;;;9.17;;
908;SDS011;441;51.192;6.788;2022-12-29T10:19:22;9.70;;;9.40;;
908;SDS011;441;51.192;6.788;2022-12-29T10:22:09;8.50;;;8.23;;
908;SDS011;441;51.192;6.788;2022-12-29T10:24:42;9.00;;;8.70;;
908;SDS011;441;51.192;6.788;2022-12-29T10:27:13;8.50;;;8.30;;
908;SDS011;441;51.192;6.788;2022-12-29T10:29:43;8.67;;;8.30;;
908;SDS011;441;51.192;6.788;2022-12-29T10:32:17;8.20;;;8.00;;
908;SDS011;441;51.192;6.788;2022-12-29T10:34:53;8.73;;;8.50;;
908;SDS011;441;51.192;6.788;2022-12-29T10:37:24;8.90;;;8.60;;
908;SDS011;441;51.192;6.788;2022-12-29T10:39:56;8.83;;;8.63;;
908;SDS011;441;51.192;6.788;2022-12-29T10:42:25;9.20;;;8.90;;
908;SDS011;441;51.192;6.788;2022-12-29T10:44:53;9.40;;;9.00;;
908;SDS011;441;51.192;6.788;2022-12-29T10:47:22;8.37;;;8.17;;
908;SDS011;441;51.192;6.788;2022-12-29T10:49:52;8.20;;;8.00;;
908;SDS011;441;51.192;6.788;2022-12-29T10:52:19;8.57;;;8.27;;
908;SDS011;441;51.192;6.788;2022-12-29T10:54:49;8.60;;;8.40;;
908;SDS011;441;51.192;6.788;2022-12-29T10:57:22;9.27;;;9.07;;
908;SDS011;441;51.192;6.788;2022-12-29T10:59:52;8.87;;;8.57;;
908;SDS011;441;51.192;6.788;2022-12-29T11:05:21;8.80;;;8.60;;
908;SDS011;441;51.192;6.788;2022-12-29T11:07:56;8.90;;;8.40;;
908;SDS011;441;51.192;6.788;2022-12-29T11:10:29;8.90;;;8.60;;
908;SDS011;441;51.192;6.788;2022-12-29T11:13:01;8.60;;;8.30;;
908;SDS011;441;51.192;6.788;2022-12-29T11:15:37;7.97;;;7.87;;
908;SDS011;441;51.192;6.788;2022-12-29T11:18:08;8.53;;;8.33;;
908;SDS011;441;51.192;6.788;2022-12-29T11:20:49;8.90;;;8.70;;
908;SDS011;441;51.192;6.788;2022-12-29T11:23:21;8.53;;;8.23;;
908;SDS011;441;51.192;6.788;2022-12-29T11:26:11;8.20;;;8.00;;
908;SDS011;441;51.192;6.788;2022-12-29T11:28:41;8.50;;;8.30;;
908;SDS011;441;51.192;6.788;2022-12-29T11:31:09;8.30;;;8.10;;
908;SDS011;441;51.192;6.788;2022-12-29T11:33:41;8.73;;;8.43;;
908;SDS011;441;51.192;6.788;2022-12-29T11:36:10;8.20;;;8.00;;
908;SDS011;441;51.192;6.788;2022-12-29T11:38:41;8.50;;;8.30;;
908;SDS011;441;51.192;6.788;2022-12-29T11:41:13;8.17;;;7.97;;
908;SDS011;441;51.192;6.788;2022-12-29T11:43:46;8.60;;;8.40;;
908;SDS011;441;51.192;6.788;2022-12-29T11:46:14;8.10;;;7.90;;
908;SDS011;441;51.192;6.788;2022-12-29T11:48:44;8.53;;;8.23;;
908;SDS011;441;51.192;6.788;2022-12-29T11:51:14;8.10;;;7.90;;
908;SDS011;441;51.192;6.788;2022-12-29T11:53:50;8.47;;;8.27;;
908;SDS011;441;51.192;6.788;2022-12-29T11:56:19;8.73;;;8.53;;
908;SDS011;441;51.192;6.788;2022-12-29T11:58:57;8.70;;;8.30;;
908;SDS011;441;51.192;6.788;2022-12-29T12:01:26;8.37;;;8.17;;
908;SDS011;441;51.192;6.788;2022-12-29T12:03:59;8.30;;;8.10;;
908;SDS011;441;51.192;6.788;2022-12-29T12:06:30;8.83;;;8.63;;
908;SDS011;441;51.192;6.788;2022-12-29T12:09:02;8.53;;;8.33;;
908;SDS011;441;51.192;6.788;2022-12-29T12:11:34;9.07;;;8.67;;
908;SDS011;441;51.192;6.788;2022-12-29T12:14:04;8.60;;;8.30;;
908;SDS011;441;51.192;6.788;2022-12-29T12:16:39;8.03;;;7.83;;
908;SDS011;441;51.192;6.788;2022-12-29T12:19:12;8.50;;;8.30;;
908;SDS011;441;51.192;6.788;2022-12-29T12:21:47;9.10;;;8.90;;
908;SDS011;441;51.192;6.788;2022-12-29T12:27:14;8.17;;;7.90;;
908;SDS011;441;51.192;6.788;2022-12-29T12:29:47;8.00;;;7.80;;
908;SDS011;441;51.192;6.788;2022-12-29T12:32:22;7.97;;;7.73;;
908;SDS011;441;51.192;6.788;2022-12-29T12:34:52;8.43;;;8.00;;
908;SDS011;441;51.192;6.788;2022-12-29T12:37:25;8.23;;;8.03;;
908;SDS011;441;51.192;6.788;2022-12-29T12:40:20;8.77;;;8.53;;
908;SDS011;441;51.192;6.788;2022-12-29T12:43:05;8.57;;;8.27;;
908;SDS011;441;51.192;6.788;2022-12-29T12:45:49;9.13;;;8.90;;
908;SDS011;441;51.192;6.788;2022-12-29T12:48:40;9.90;;;9.50;;
908;SDS011;441;51.192;6.788;2022-12-29T12:51:23;9.57;;;9.17;;
908;SDS011;441;51.192;6.788;2022-12-29T12:54:05;9.10;;;8.90;;
908;SDS011;441;51.192;6.788;2022-12-29T12:56:46;9.40;;;9.10;;
908;SDS011;441;51.192;6.788;2022-12-29T12:59:25;7.80;;;7.50;;
908;SDS011;441;51.192;6.788;2022-12-29T13:02:08;9.40;;;9.00;;
908;SDS011;441;51.192;6.788;2022-12-29T13:04:48;9.17;;;8.83;;
908;SDS011;441;51.192;6.788;2022-12-29T13:07:27;8.80;;;8.60;;
908;SDS011;441;51.192;6.788;2022-12-29T13:10:05;9.40;;;9.20;;
908;SDS011;441;51.192;6.788;2022-12-29T13:12:46;8.70;;;8.50;;
908;SDS011;441;51.192;6.788;2022-12-29T13:15:22;9.10;;;8.70;;
908;SDS011;441;51.192;6.788;2022-12-29T13:18:05;8.90;;;8.70;;
908;SDS011;441;51.192;6.788;2022-12-29T13:20:43;9.00;;;8.80;;
908;SDS011;441;51.192;6.788;2022-12-29T13:23:15;8.68;;;8.45;;
908;SDS011;441;51.192;6.788;2022-12-29T13:25:53;8.50;;;8.30;;
908;SDS011;441;51.192;6.788;2022-12-29T13:28:31;8.63;;;8.43;;
908;SDS011;441;51.192;6.788;2022-12-29T13:31:05;9.57;;;9.37;;
908;SDS011;441;51.192;6.788;2022-12-29T13:33:42;8.40;;;8.20;;
908;SDS011;441;51.192;6.788;2022-12-29T13:36:19;8.83;;;8.53;;
908;SDS011;441;51.192;6.788;2022-12-29T13:38:51;8.70;;;8.40;;
908;SDS011;441;51.192;6.788;2022-12-29T13:41:29;8.73;;;8.53;;
908;SDS011;441;51.192;6.788;2022-12-29T13:43:59;6.80;;;6.60;;
908;SDS011;441;51.192;6.788;2022-12-29T13:46:28;8.50;;;8.20;;
908;SDS011;441;51.192;6.788;2022-12-29T13:48:59;9.20;;;9.00;;
908;SDS011;441;51.192;6.788;2022-12-29T13:51:31;8.40;;;8.20;;
908;SDS011;441;51.192;6.788;2022-12-29T13:54:05;8.43;;;8.20;;
908;SDS011;441;51.192;6.788;2022-12-29T13:56:47;8.80;;;8.50;;
908;SDS011;441;51.192;6.788;2022-12-29T13:59:19;8.17;;;7.97;;
908;SDS011;441;51.192;6.788;2022-12-29T14:01:50;8.80;;;8.60;;
908;SDS011;441;51.192;6.788;2022-12-29T14:04:25;8.83;;;8.63;;
908;SDS011;441;51.192;6.788;2022-12-29T14:07:01;9.20;;;8.90;;
908;SDS011;441;51.192;6.788;2022-12-29T14:09:42;9.53;;;9.33;;
908;SDS011;441;51.192;6.788;2022-12-29T14:12:20;9.30;;;9.00;;
908;SDS011;441;51.192;6.788;2022-12-29T14:14:54;9.50;;;9.20;;
908;SDS011;441;51.192;6.788;2022-12-29T14:17:27;10.43;;;9.83;;
908;SDS011;441;51.192;6.788;2022-12-29T14:19:54;8.73;;;8.50;;
908;SDS011;441;51.192;6.788;2022-12-29T14:22:25;9.13;;;8.80;;
908;SDS011;441;51.192;6.788;2022-12-29T14:24:53;8.07;;;7.87;;
908;SDS011;441;51.192;6.788;2022-12-29T14:33:17;9.43;;;9.03;;
908;SDS011;441;51.192;6.788;2022-12-29T14:35:46;8.63;;;8.37;;
908;SDS011;441;51.192;6.788;2022-12-29T14:41:18;9.17;;;8.87;;
908;SDS011;441;51.192;6.788;2022-12-29T14:43:55;6.63;;;6.43;;
908;SDS011;441;51.192;6.788;2022-12-29T14:46:47;8.50;;;8.20;;
908;SDS011;441;51.192;6.788;2022-12-29T14:49:22;8.97;;;8.73;;
908;SDS011;441;51.192;6.788;2022-12-29T14:51:51;8.50;;;8.20;;
908;SDS011;441;51.192;6.788;2022-12-29T14:57:10;10.10;;;9.80;;
908;SDS011;441;51.192;6.788;2022-12-29T14:59:43;9.03;;;8.73;;
908;SDS011;441;51.192;6.788;2022-12-29T15:02:13;9.07;;;8.87;;
908;SDS011;441;51.192;6.788;2022-12-29T15:04:44;8.47;;;8.17;;
908;SDS011;441;51.192;6.788;2022-12-29T15:07:13;9.03;;;8.73;;
908;SDS011;441;51.192;6.788;2022-12-29T15:09:41;9.00;;;8.70;;
908;SDS011;441;51.192;6.788;2022-12-29T15:12:15;8.60;;;8.40;;
908;SDS011;441;51.192;6.788;2022-12-29T15:14:52;8.67;;;8.47;;
908;SDS011;441;51.192;6.788;2022-12-29T15:17:24;9.13;;;8.80;;
908;SDS011;441;51.192;6.788;2022-12-29T15:19:52;8.47;;;8.27;;
908;SDS011;441;51.192;6.788;2022-12-29T15:22:20;8.67;;;8.33;;
908;SDS011;441;51.192;6.788;2022-12-29T15:24:49;8.70;;;8.50;;
908;SDS011;441;51.192;6.788;2022-12-29T15:27:19;8.97;;;8.67;;
908;SDS011;441;51.192;6.788;2022-12-29T15:29:47;8.60;;;8.30;;
908;SDS011;441;51.192;6.788;2022-12-29T15:32:23;9.00;;;8.80;;
908;SDS011;441;51.192;6.788;2022-12-29T15:34:51;8.63;;;8.43;;
908;SDS011;441;51.192;6.788;2022-12-29T15:37:21;8.73;;;8.53;;
908;SDS011;441;51.192;6.788;2022-12-29T15:39:49;8.70;;;8.40;;
908;SDS011;441;51.192;6.788;2022-12-29T15:42:23;9.20;;;9.00;;
908;SDS011;441;51.192;6.788;2022-12-29T15:44:58;9.00;;;8.70;;
908;SDS011;441;51.192;6.788;2022-12-29T15:47:30;8.73;;;8.53;;
908;SDS011;441;51.192;6.788;2022-12-29T15:49:59;10.27;;;9.97;;
908;SDS011;441;51.192;6.788;2022-12-29T15:52:30;9.30;;;9.00;;
908;SDS011;441;51.192;6.788;2022-12-29T15:54:59;9.90;;;9.40;;
908;SDS011;441;51.192;6.788;2022-12-29T15:57:27;9.30;;;9.10;;
908;SDS011;441;51.192;6.788;2022-12-29T15:59:57;9.43;;;9.23;;
908;SDS011;441;51.192;6.788;2022-12-29T16:02:24;9.10;;;8.87;;
908;SDS011;441;51.192;6.788;2022-12-29T16:04:53;9.83;;;9.53;;
908;SDS011;441;51.192;6.788;2022-12-29T16:07:22;9.37;;;9.07;;
908;SDS011;441;51.192;6.788;2022-12-29T16:09:54;9.50;;;9.23;;
908;SDS011;441;51.192;6.788;2022-12-29T16:12:23;9.60;;;9.23;;
908;SDS011;441;51.192;6.788;2022-12-29T16:14:53;9.53;;;9.23;;
908;SDS011;441;51.192;6.788;2022-12-29T16:17:23;9.90;;;9.60;;
908;SDS011;441;51.192;6.788;2022-12-29T16:19:55;9.90;;;9.60;;
908;SDS011;441;51.192;6.788;2022-12-29T16:22:26;10.43;;;10.10;;
908;SDS011;441;51.192;6.788;2022-12-29T16:24:55;9.70;;;9.50;;
908;SDS011;441;51.192;6.788;2022-12-29T16:27:25;9.73;;;9.40;;
908;SDS011;441;51.192;6.788;2022-12-29T16:29:59;9.57;;;9.17;;
908;SDS011;441;51.192;6.788;2022-12-29T16:32:31;9.30;;;8.97;;
908;SDS011;441;51.192;6.788;2022-12-29T16:35:08;8.70;;;8.50;;